Time;durP1;ratioP1;P1;durP2;ratioP2;P2;SDS_P1;SDS_P2;PMS_P1;PMS_P2;Temp;Humidity;BMP_temperature;BMP_pressure;BME280_temperature;BME280_humidity;BME280_pressure;Samples;Min_cycle;Max_cycle;Signal;HPM_P1;HPM_P2
2021/06/13 00:00:27;;;;;;;;;7.00;6.25;;;;;21.01;50.46;101782.69;4899430;29;45589;-77
2021/06/13 00:06:15;;;;;;;;;4.00;4.00;;;;;20.95;50.90;101779.63;4899711;29;45861;-78
2021/06/13 00:08:41;;;;;;;;;6.50;5.25;;;;;20.98;50.71;101786.50;4899209;29;45605;-79
2021/06/13 00:11:08;;;;;;;;;6.00;5.25;;;;;20.88;50.95;101778.56;4883417;29;45826;-78
2021/06/13 00:13:34;;;;;;;;;5.00;5.00;;;;;20.93;50.91;101794.09;4899177;29;45727;-78
2021/06/13 00:16:00;;;;;;;;;6.00;6.00;;;;;20.91;51.01;101788.06;4898730;29;46131;-77
2021/06/13 00:18:26;;;;;;;;;6.25;5.25;;;;;20.90;51.09;101783.72;4899010;29;45762;-78
2021/06/13 00:20:53;;;;;;;;;6.00;6.00;;;;;20.85;51.16;101781.50;4898718;29;45560;-78
2021/06/13 00:23:19;;;;;;;;;5.00;4.50;;;;;20.85;51.66;101786.00;4898686;29;47377;-78
2021/06/13 00:25:45;;;;;;;;;5.50;5.00;;;;;20.80;51.56;101773.13;4898450;29;45698;-78
2021/06/13 00:28:11;;;;;;;;;5.75;4.50;;;;;20.62;51.59;101756.22;4898687;29;45658;-78
2021/06/13 00:30:37;;;;;;;;;5.00;4.75;;;;;20.65;51.84;101761.25;4899352;29;45911;-77
2021/06/13 00:36:24;;;;;;;;;5.50;5.25;;;;;20.63;52.16;101773.88;4897960;29;46130;-78
2021/06/13 00:38:50;;;;;;;;;7.50;6.00;;;;;20.57;52.10;101773.66;4898567;29;45594;-76
2021/06/13 00:41:18;;;;;;;;;6.00;6.00;;;;;20.50;52.19;101765.38;4899072;29;45540;-79
2021/06/13 00:43:43;;;;;;;;;5.50;5.25;;;;;20.48;52.44;101765.53;4898326;29;46678;-79
2021/06/13 00:46:09;;;;;;;;;6.50;6.00;;;;;20.50;52.22;101773.38;4898586;29;45624;-77
2021/06/13 00:48:34;;;;;;;;;7.50;7.25;;;;;20.47;52.35;101770.97;4899357;29;45494;-78
2021/06/13 00:51:00;;;;;;;;;6.50;6.00;;;;;20.34;52.45;101751.84;4898631;29;45733;-79
2021/06/13 00:53:26;;;;;;;;;5.25;5.00;;;;;20.46;52.53;101774.63;4899331;29;46225;-79
2021/06/13 00:55:52;;;;;;;;;6.75;6.00;;;;;20.43;52.41;101767.78;4898580;29;46041;-79
2021/06/13 00:58:18;;;;;;;;;10.75;7.25;;;;;20.42;52.61;101770.59;4900389;29;45711;-79
2021/06/13 01:00:44;;;;;;;;;7.00;6.00;;;;;20.39;52.91;101776.22;4904528;29;45669;-79
2021/06/13 01:06:46;;;;;;;;;5.75;5.75;;;;;20.29;52.54;101760.22;4902809;29;45731;-78
2021/06/13 01:09:17;;;;;;;;;8.00;6.25;;;;;20.27;53.14;101772.00;4903802;29;45526;-77
2021/06/13 01:11:56;;;;;;;;;7.00;6.25;;;;;20.22;53.11;101764.44;4903890;29;45600;-79
2021/06/13 01:14:49;;;;;;;;;7.00;7.00;;;;;20.18;53.27;101763.06;4883214;29;46427;-79
2021/06/13 01:17:36;;;;;;;;;7.75;7.00;;;;;20.15;53.22;101771.31;4898225;29;45951;-78
2021/06/13 01:20:19;;;;;;;;;8.50;7.00;;;;;20.09;53.55;101764.72;4898033;29;45808;-78
2021/06/13 01:23:09;;;;;;;;;6.50;6.00;;;;;20.04;53.50;101763.47;4898407;29;45538;-79
2021/06/13 01:26:12;;;;;;;;;9.50;8.25;;;;;20.05;53.60;101770.47;4897815;29;45646;-78
2021/06/13 01:29:00;;;;;;;;;7.75;7.50;;;;;20.01;53.42;101772.59;4897942;29;45864;-78
2021/06/13 01:34:54;;;;;;;;;6.75;6.75;;;;;19.96;53.90;101784.66;4897713;29;45543;-79
2021/06/13 01:37:24;;;;;;;;;6.00;6.00;;;;;19.95;53.38;101790.94;4897791;29;46500;-78
2021/06/13 01:39:53;;;;;;;;;6.00;6.00;;;;;19.93;53.82;101780.44;4880635;29;46361;-77
2021/06/13 01:42:19;;;;;;;;;9.25;7.00;;;;;19.93;53.68;101776.94;4898101;29;45735;-79
2021/06/13 01:44:45;;;;;;;;;8.50;7.00;;;;;19.91;53.34;101785.06;4897721;29;45743;-78
2021/06/13 01:50:33;;;;;;;;;9.75;8.25;;;;;19.87;53.83;101791.63;4896224;29;45789;-79
2021/06/13 01:53:02;;;;;;;;;8.00;8.00;;;;;19.76;53.81;101782.97;4880231;29;45787;-80
2021/06/13 01:55:29;;;;;;;;;6.75;5.75;;;;;19.83;53.60;101789.38;4897762;29;45752;-78
2021/06/13 01:57:56;;;;;;;;;7.00;7.00;;;;;19.80;54.09;101793.19;4897516;29;46998;-78
2021/06/13 02:00:22;;;;;;;;;11.00;9.75;;;;;19.81;53.55;101792.19;4897277;29;46385;-78
2021/06/13 02:06:10;;;;;;;;;7.75;7.75;;;;;19.79;53.89;101798.63;4897226;29;45539;-78
2021/06/13 02:08:38;;;;;;;;;8.25;8.25;;;;;19.78;54.04;101800.44;4896922;29;47046;-79
2021/06/13 02:11:06;;;;;;;;;9.75;7.75;;;;;19.78;54.06;101800.44;4880619;29;47207;-79
2021/06/13 02:13:33;;;;;;;;;7.25;6.75;;;;;19.74;54.06;101795.56;4899722;29;45651;-78
2021/06/13 02:15:59;;;;;;;;;9.50;8.25;;;;;19.77;54.04;101811.22;4900491;29;45531;-79
2021/06/13 02:21:54;;;;;;;;;7.50;7.25;;;;;19.70;53.82;101803.78;4903211;29;45775;-78
2021/06/13 02:24:23;;;;;;;;;8.25;8.25;;;;;19.64;53.67;101798.22;4903091;29;45680;-78
2021/06/13 02:26:50;;;;;;;;;10.75;7.50;;;;;19.72;54.06;101811.66;4903441;29;45858;-79
2021/06/13 02:29:16;;;;;;;;;6.75;6.50;;;;;19.69;53.98;101801.31;4901872;29;45746;-78
2021/06/13 02:38:09;;;;;;;;;9.75;7.50;;;;;19.66;53.94;101817.50;4900439;28;45836;-79
2021/06/13 02:40:35;;;;;;;;;6.75;6.75;;;;;19.65;53.72;101818.50;4900343;29;45607;-79
2021/06/13 02:43:00;;;;;;;;;9.25;9.00;;;;;19.62;54.01;101816.13;4899879;29;46187;-78
2021/06/13 02:45:26;;;;;;;;;8.00;7.75;;;;;19.63;54.33;101809.81;4900323;29;46254;-79
2021/06/13 02:47:51;;;;;;;;;11.75;10.00;;;;;19.54;54.23;101806.16;4900741;29;45799;-78
2021/06/13 02:50:21;;;;;;;;;7.00;6.00;;;;;19.59;54.20;101819.06;4900183;29;45613;-78
2021/06/13 02:52:58;;;;;;;;;7.25;7.00;;;;;19.55;54.44;101821.13;4883778;29;48107;-78
2021/06/13 02:55:35;;;;;;;;;8.00;7.25;;;;;19.51;54.06;101821.56;4903081;29;45782;-79
2021/06/13 02:58:19;;;;;;;;;6.75;6.75;;;;;19.50;54.51;101822.53;4888568;29;45762;-79
2021/06/13 03:00:47;;;;;;;;;8.25;7.25;;;;;19.45;54.00;101817.63;4904944;29;46284;-78
2021/06/13 03:03:18;;;;;;;;;7.75;7.75;;;;;19.49;54.26;101842.09;4904376;29;45591;-79
2021/06/13 03:05:44;;;;;;;;;7.00;6.75;;;;;19.47;54.20;101834.28;4902733;29;45642;-77
2021/06/13 03:08:10;;;;;;;;;7.50;6.50;;;;;19.49;54.35;101840.28;4900788;29;45726;-78
2021/06/13 03:10:36;;;;;;;;;7.75;7.25;;;;;19.49;53.73;101847.41;4899904;29;46115;-79
2021/06/13 03:13:03;;;;;;;;;9.50;7.75;;;;;19.48;54.18;101851.94;4899388;29;47283;-77
2021/06/13 03:15:31;;;;;;;;;8.25;7.50;;;;;19.50;54.11;101852.63;4899662;29;45709;-79
2021/06/13 03:17:57;;;;;;;;;9.25;7.50;;;;;19.51;53.98;101859.63;4899849;29;45574;-77
2021/06/13 03:20:23;;;;;;;;;9.50;8.50;;;;;19.49;53.84;101860.72;4899571;29;45657;-77
2021/06/13 03:22:49;;;;;;;;;9.50;8.00;;;;;19.46;53.65;101850.38;4899491;29;47127;-79
2021/06/13 03:25:14;;;;;;;;;6.75;6.50;;;;;19.45;54.17;101846.88;4899108;29;45972;-79
2021/06/13 03:27:43;;;;;;;;;8.00;7.00;;;;;19.50;54.04;101851.75;4899733;29;45878;-78
2021/06/13 03:30:09;;;;;;;;;8.25;7.50;;;;;19.52;53.75;101856.00;4899183;29;46372;-79
2021/06/13 03:32:35;;;;;;;;;10.00;8.50;;;;;19.52;54.17;101849.81;4899823;29;46026;-78
2021/06/13 03:35:01;;;;;;;;;11.25;8.00;;;;;19.51;53.76;101851.63;4899250;29;45655;-77
2021/06/13 03:37:27;;;;;;;;;7.50;7.00;;;;;19.54;53.42;101854.00;4899921;29;45583;-79
2021/06/13 03:39:53;;;;;;;;;8.50;8.00;;;;;19.38;53.59;101827.06;4899550;29;45696;-78
2021/06/13 03:42:20;;;;;;;;;9.00;8.50;;;;;19.52;53.39;101856.00;4899678;29;46213;-78
2021/06/13 03:44:47;;;;;;;;;10.00;9.00;;;;;19.52;53.43;101857.81;4899472;29;45619;-78
2021/06/13 03:47:13;;;;;;;;;10.00;8.00;;;;;19.46;53.78;101847.72;4899038;29;45579;-77
2021/06/13 03:49:40;;;;;;;;;9.25;9.00;;;;;19.52;53.54;101860.47;4899189;29;45629;-77
2021/06/13 03:52:06;;;;;;;;;8.75;8.00;;;;;19.50;53.65;101854.44;4882551;29;47166;-78
2021/06/13 03:54:32;;;;;;;;;8.50;8.00;;;;;19.52;53.63;101861.31;4882295;29;45817;-78
2021/06/13 03:57:02;;;;;;;;;11.25;9.50;;;;;19.48;53.37;101853.75;4899295;29;45518;-79
2021/06/13 03:59:29;;;;;;;;;9.75;9.00;;;;;19.54;53.45;101861.19;4899298;29;46489;-78
2021/06/13 04:01:56;;;;;;;;;11.50;8.00;;;;;19.53;53.54;101857.66;4899087;29;45915;-79
2021/06/13 04:07:44;;;;;;;;;8.75;7.50;;;;;19.53;53.55;101864.81;4899194;29;45690;-78
2021/06/13 04:10:12;;;;;;;;;9.50;9.00;;;;;19.53;53.15;101856.84;4898704;29;47485;-78
2021/06/13 04:12:39;;;;;;;;;9.25;8.50;;;;;19.53;53.42;101870.97;4898656;29;46090;-78
2021/06/13 04:15:07;;;;;;;;;8.75;7.50;;;;;19.50;53.29;101863.25;4898798;29;45711;-78
2021/06/13 04:17:33;;;;;;;;;7.75;7.75;;;;;19.43;52.80;101850.63;4899477;29;45597;-78
2021/06/13 04:20:01;;;;;;;;;10.50;9.25;;;;;19.55;53.33;101878.78;4898848;29;46483;-78
2021/06/13 04:22:27;;;;;;;;;9.00;7.75;;;;;19.47;52.93;101870.66;4898856;29;47163;-76
2021/06/13 04:24:54;;;;;;;;;8.50;7.75;;;;;19.53;53.47;101878.94;4899072;29;45698;-79
2021/06/13 04:27:22;;;;;;;;;9.25;9.25;;;;;19.53;52.88;101878.94;4899956;29;45738;-79
2021/06/13 04:29:49;;;;;;;;;7.75;7.75;;;;;19.41;53.21;101871.16;4899453;29;46174;-79
2021/06/13 04:32:15;;;;;;;;;9.25;8.50;;;;;19.51;52.86;101885.34;4881851;29;46059;-77
2021/06/13 04:38:02;;;;;;;;;9.25;9.25;;;;;19.43;52.92;101880.69;4899024;29;45592;-78
2021/06/13 04:40:27;;;;;;;;;10.25;9.50;;;;;19.45;53.32;101892.06;4899090;29;45755;-78
2021/06/13 04:42:53;;;;;;;;;11.25;9.25;;;;;19.45;53.23;101891.22;4900006;29;45788;-78
2021/06/13 04:45:18;;;;;;;;;9.75;9.25;;;;;19.35;53.04;101883.19;4899422;29;45589;-78
2021/06/13 04:47:43;;;;;;;;;8.25;7.75;;;;;19.41;53.35;101895.09;4899789;29;45619;-79
2021/06/13 04:50:10;;;;;;;;;9.25;8.25;;;;;19.36;53.29;101884.03;4901824;29;47225;-78
2021/06/13 04:52:39;;;;;;;;;8.50;7.75;;;;;19.45;53.01;101901.84;4901651;29;46695;-79
2021/06/13 04:55:30;;;;;;;;;8.00;8.00;;;;;19.46;52.94;101903.53;4901820;29;45783;-78
2021/06/13 04:58:01;;;;;;;;;9.25;7.50;;;;;19.48;52.67;101904.25;4902740;29;45684;-78
2021/06/13 05:00:26;;;;;;;;;9.00;8.25;;;;;19.38;53.01;101885.56;4900313;29;46339;-77
2021/06/13 05:02:52;;;;;;;;;11.50;9.75;;;;;19.52;53.20;101908.31;4899228;29;45669;-79
2021/06/13 05:05:17;;;;;;;;;7.00;7.00;;;;;19.47;53.01;101897.25;4898304;29;45761;-79
2021/06/13 05:07:43;;;;;;;;;8.00;6.00;;;;;19.32;52.89;101874.66;4900394;29;45571;-78
2021/06/13 05:10:09;;;;;;;;;10.25;9.25;;;;;19.49;52.98;101906.75;4903359;29;46934;-78
2021/06/13 05:12:45;;;;;;;;;9.50;9.00;;;;;19.42;52.68;101891.47;4903867;29;46551;-79
2021/06/13 05:15:10;;;;;;;;;8.75;8.00;;;;;19.49;52.59;101908.56;4903149;29;45516;-78
2021/06/13 05:17:36;;;;;;;;;10.50;9.50;;;;;19.48;52.97;101905.09;4904304;29;45509;-77
2021/06/13 05:23:25;;;;;;;;;9.25;8.00;;;;;19.43;52.90;101893.16;4903370;29;45724;-78
2021/06/13 05:25:52;;;;;;;;;8.75;8.25;;;;;19.53;52.67;101910.00;4899958;29;45589;-79
2021/06/13 05:28:18;;;;;;;;;9.50;8.50;;;;;19.57;52.48;101930.03;4899079;29;45702;-79
2021/06/13 05:30:44;;;;;;;;;8.50;8.50;;;;;19.53;52.72;101920.63;4898962;29;46415;-79
2021/06/13 05:33:10;;;;;;;;;10.50;8.25;;;;;19.56;52.55;101915.88;4881459;29;46473;-79
2021/06/13 05:35:38;;;;;;;;;9.50;8.75;;;;;19.58;52.74;101921.91;4898490;29;45580;-77
2021/06/13 05:38:04;;;;;;;;;12.00;9.75;;;;;19.53;52.49;101918.81;4899523;29;45844;-79
2021/06/13 05:40:30;;;;;;;;;8.25;7.25;;;;;19.64;52.71;101934.69;4898872;29;46548;-78
2021/06/13 05:42:56;;;;;;;;;6.00;6.00;;;;;19.61;52.19;101928.75;4898520;29;46440;-79
2021/06/13 05:45:24;;;;;;;;;9.25;7.75;;;;;19.68;52.05;101936.06;4898121;29;45680;-78
2021/06/13 05:47:50;;;;;;;;;7.50;6.75;;;;;19.57;52.44;101912.25;4897920;29;45566;-78
2021/06/13 05:53:51;;;;;;;;;7.50;6.25;;;;;19.72;51.74;101939.28;4898709;29;46138;-79
2021/06/13 05:56:20;;;;;;;;;6.50;6.50;;;;;19.65;52.31;101919.53;4900918;29;45650;-78
2021/06/13 05:58:45;;;;;;;;;7.00;7.00;;;;;19.67;51.77;101923.75;4900988;29;45504;-80
2021/06/13 06:01:11;;;;;;;;;9.50;8.00;;;;;19.78;51.94;101945.91;4900745;29;46711;-78
2021/06/13 06:03:37;;;;;;;;;7.00;7.00;;;;;19.82;52.17;101948.13;4900932;29;46249;-77
2021/06/13 06:06:02;;;;;;;;;7.00;6.75;;;;;19.84;51.61;101945.34;4900434;29;45477;-78
2021/06/13 06:08:27;;;;;;;;;6.25;6.00;;;;;19.87;51.53;101940.59;4900993;29;45814;-78
2021/06/13 06:10:53;;;;;;;;;7.75;6.75;;;;;19.77;51.63;101922.94;4900858;29;47387;-80
2021/06/13 06:13:19;;;;;;;;;8.00;7.00;;;;;19.86;51.30;101938.09;4899793;29;46014;-79
2021/06/13 06:15:47;;;;;;;;;7.50;7.25;;;;;19.85;51.11;101945.22;4900532;29;45739;-79
2021/06/13 06:18:12;;;;;;;;;6.00;6.00;;;;;19.85;51.27;101928.41;4900962;29;45616;-78
2021/06/13 06:23:59;;;;;;;;;7.75;5.50;;;;;20.02;50.65;101957.88;4899883;29;45975;-77
2021/06/13 06:26:25;;;;;;;;;7.25;6.00;;;;;20.04;50.74;101947.06;4900906;29;45883;-77
2021/06/13 06:28:50;;;;;;;;;5.50;5.00;;;;;20.07;50.93;101949.47;4900598;29;45772;-79
2021/06/13 06:31:16;;;;;;;;;5.75;4.50;;;;;20.09;50.75;101951.00;4900341;29;45607;-78
2021/06/13 06:33:42;;;;;;;;;7.00;5.00;;;;;20.15;50.53;101956.75;4900255;29;45716;-78
2021/06/13 06:36:07;;;;;;;;;6.00;5.75;;;;;20.15;50.50;101957.59;4900285;29;45860;-80
2021/06/13 06:38:33;;;;;;;;;7.25;7.00;;;;;20.21;50.51;101959.72;4899914;29;45537;-78
2021/06/13 06:40:59;;;;;;;;;6.50;6.50;;;;;20.27;50.14;101971.63;4900032;29;46606;-79
2021/06/13 06:43:25;;;;;;;;;5.25;4.50;;;;;20.26;50.17;101962.78;4883140;29;45946;-77
2021/06/13 06:45:51;;;;;;;;;8.00;8.00;;;;;20.30;49.99;101969.50;4900495;29;45707;-80
2021/06/13 06:48:16;;;;;;;;;6.00;6.00;;;;;20.34;49.86;101978.13;4901129;29;45614;-78
2021/06/13 06:54:04;;;;;;;;;8.50;7.00;;;;;20.38;49.58;101966.19;4900791;28;45911;-77
2021/06/13 06:56:30;;;;;;;;;5.50;5.25;;;;;20.34;49.61;101962.16;4901855;29;45693;-78
2021/06/13 06:58:56;;;;;;;;;6.00;5.75;;;;;20.41;49.46;101956.09;4900093;29;45520;-78
2021/06/13 07:01:23;;;;;;;;;9.00;6.75;;;;;20.42;49.25;101959.63;4900050;29;46418;-77
2021/06/13 07:03:48;;;;;;;;;6.00;5.75;;;;;20.47;48.89;101968.03;4898733;29;45764;-79
2021/06/13 07:09:36;;;;;;;;;7.00;5.75;;;;;20.45;48.73;101964.69;4899635;29;45543;-78
2021/06/13 07:12:01;;;;;;;;;6.50;6.00;;;;;20.52;48.52;101971.09;4899235;29;45755;-79
2021/06/13 07:14:27;;;;;;;;;6.25;6.25;;;;;20.40;48.89;101949.13;4882283;29;46388;-79
2021/06/13 07:16:52;;;;;;;;;5.75;5.00;;;;;20.50;48.46;101962.44;4899487;29;45549;-79
2021/06/13 07:19:17;;;;;;;;;7.50;6.00;;;;;20.46;48.30;101953.03;4899983;29;45698;-79
2021/06/13 07:21:44;;;;;;;;;5.00;5.00;;;;;20.61;48.19;101972.94;4899518;29;45826;-77
2021/06/13 07:24:09;;;;;;;;;6.00;5.25;;;;;20.64;48.23;101972.66;4899235;29;46257;-78
2021/06/13 07:26:35;;;;;;;;;5.00;5.00;;;;;20.67;48.01;101977.72;4899264;29;45445;-78
2021/06/13 07:29:01;;;;;;;;;5.00;4.00;;;;;20.69;48.02;101975.72;4899154;29;45663;-78
2021/06/13 07:31:26;;;;;;;;;4.00;4.00;;;;;20.72;47.61;101985.28;4899469;29;46480;-80
2021/06/13 07:33:53;;;;;;;;;6.00;5.75;;;;;20.61;47.68;101958.78;4881882;29;48428;-80
2021/06/13 07:39:40;;;;;;;;;4.25;4.00;;;;;20.80;47.12;101988.06;4898742;29;45646;-79
2021/06/13 07:42:08;;;;;;;;;6.75;5.75;;;;;20.78;46.57;101974.06;4899306;29;46581;-79
2021/06/13 07:44:34;;;;;;;;;6.00;5.00;;;;;20.84;46.73;101981.47;4881596;29;47102;-79
2021/06/13 07:46:59;;;;;;;;;4.00;4.00;;;;;20.87;46.91;101970.53;4898966;29;45531;-78
2021/06/13 07:49:25;;;;;;;;;4.25;4.00;;;;;20.94;46.60;101980.47;4899208;29;45496;-77
2021/06/13 07:51:51;;;;;;;;;5.75;5.00;;;;;20.99;46.45;101980.06;4899205;29;45510;-78
2021/06/13 07:54:17;;;;;;;;;6.00;6.00;;;;;20.99;46.46;101968.56;4899042;29;46162;-78
2021/06/13 07:56:42;;;;;;;;;4.50;4.00;;;;;21.07;46.22;101980.16;4899242;29;45652;-79
2021/06/13 07:59:08;;;;;;;;;4.00;3.75;;;;;21.04;46.21;101967.16;4899081;29;45606;-81
2021/06/13 08:01:34;;;;;;;;;5.25;5.00;;;;;21.11;46.23;101970.91;4898837;29;45723;-79
2021/06/13 08:03:59;;;;;;;;;6.00;5.00;;;;;21.18;46.16;101972.03;4899030;29;46335;-80
2021/06/13 08:09:46;;;;;;;;;4.00;4.00;;;;;21.12;46.03;101969.06;4899041;29;45532;-81
2021/06/13 08:12:12;;;;;;;;;4.75;4.50;;;;;21.20;45.56;101970.09;4899045;29;46516;-82
2021/06/13 08:14:38;;;;;;;;;4.00;4.00;;;;;21.23;45.72;101976.94;4898657;29;46313;-80
2021/06/13 08:17:04;;;;;;;;;4.75;4.50;;;;;21.25;45.55;101977.63;4898219;29;45679;-81
2021/06/13 08:19:30;;;;;;;;;4.25;3.50;;;;;21.19;45.25;101967.56;4899348;29;45548;-81
2021/06/13 08:25:17;;;;;;;;;4.75;4.00;;;;;21.21;44.92;101960.25;4900864;29;45863;-80
2021/06/13 08:27:43;;;;;;;;;5.75;5.00;;;;;21.32;45.23;101976.91;4886784;29;45699;-83
2021/06/13 08:30:12;;;;;;;;;5.50;4.50;;;;;21.22;44.87;101952.09;4905769;29;45458;-85
2021/06/13 08:32:38;;;;;;;;;4.75;4.75;;;;;21.28;45.11;101956.84;4906131;29;45614;-84
2021/06/13 08:35:09;;;;;;;;;4.50;4.00;;;;;21.26;44.96;101940.19;4887532;29;47395;-83
2021/06/13 08:37:35;;;;;;;;;4.75;4.75;;;;;21.49;44.63;101975.28;4888798;29;45689;-83
2021/06/13 08:40:00;;;;;;;;;4.00;4.00;;;;;21.24;44.84;101930.63;4906481;29;45539;-85
2021/06/13 08:42:26;;;;;;;;;4.00;3.75;;;;;21.55;44.13;101977.38;4908485;29;46670;-85
2021/06/13 08:44:53;;;;;;;;;4.50;4.00;;;;;21.46;44.34;101951.59;4907466;29;45502;-84
2021/06/13 08:47:19;;;;;;;;;6.00;5.00;;;;;21.61;44.41;101966.13;4889983;29;45602;-86
2021/06/13 08:49:46;;;;;;;;;4.00;4.00;;;;;21.54;44.09;101954.34;4902788;29;45599;-85
2021/06/13 08:55:33;;;;;;;;;5.75;5.00;;;;;21.59;43.44;101949.41;4899876;29;47048;-85
2021/06/13 08:58:01;;;;;;;;;4.25;3.00;;;;;21.70;43.61;101961.75;4901933;29;45726;-84
2021/06/13 09:00:31;;;;;;;;;4.50;4.00;;;;;21.44;43.41;101916.22;4884908;29;45906;-85
2021/06/13 09:03:00;;;;;;;;;4.00;4.00;;;;;21.36;43.44;101889.47;4889385;29;47595;-91
2021/06/13 09:05:26;;;;;;;;;3.25;3.25;;;;;21.63;43.79;101929.47;4905324;29;45797;-87
2021/06/13 09:08:01;;;;;;;;;3.50;3.50;;;;;21.84;43.33;101950.56;4903851;29;45694;-86
2021/06/13 09:10:30;;;;;;;;;3.00;3.00;;;;;21.64;43.21;101915.16;4901513;29;45539;-86
2021/06/13 09:13:13;;;;;;;;;3.75;3.75;;;;;21.88;42.54;101956.44;4903478;29;45617;-86
2021/06/13 09:15:41;;;;;;;;;4.25;4.00;;;;;21.87;43.08;101952.94;4889634;29;46220;-85
2021/06/13 09:18:09;;;;;;;;;7.00;5.00;;;;;21.64;42.97;101903.66;4907343;29;45658;-88
2021/06/13 09:20:34;;;;;;;;;5.00;5.00;;;;;21.67;42.54;101904.19;4889910;29;45551;-86
2021/06/13 09:23:17;;;;;;;;;6.00;5.50;;;;;21.81;42.89;101916.16;4910596;29;46544;-88
2021/06/13 09:25:44;;;;;;;;;4.00;4.00;;;;;21.78;43.10;101901.31;4908278;29;45492;-84
2021/06/13 09:28:18;;;;;;;;;5.00;5.00;;;;;21.81;42.99;101904.69;4902397;29;45863;-91
2021/06/13 09:30:50;;;;;;;;;4.50;4.00;;;;;21.97;42.01;101940.38;4886599;29;45839;-87
2021/06/13 09:33:26;;;;;;;;;3.25;3.25;;;;;21.93;42.31;101927.47;4901421;29;45644;-87
2021/06/13 09:39:11;;;;;;;;;5.25;5.25;;;;;21.92;42.05;101907.09;4846823;29;45699;-87
2021/06/13 09:41:43;;;;;;;;;4.00;4.00;;;;;22.00;42.46;101928.59;4841782;29;45521;-88
2021/06/13 09:44:19;;;;;;;;;8.00;6.75;;;;;22.10;42.35;101940.88;4826042;29;48382;-90
2021/06/13 09:46:49;;;;;;;;;5.25;4.00;;;;;21.92;42.21;101907.94;4825761;29;47881;-86
2021/06/13 09:49:19;;;;;;;;;4.50;4.50;;;;;22.21;41.91;101955.84;4840332;29;45672;-86
2021/06/13 09:51:46;;;;;;;;;4.00;4.00;;;;;22.23;42.22;101951.19;4824930;29;45702;-85
2021/06/13 09:54:32;;;;;;;;;4.00;4.00;;;;;22.13;41.99;101915.72;4841745;29;48543;-86
2021/06/13 09:57:01;;;;;;;;;5.75;5.00;;;;;22.28;41.91;101945.41;4831826;29;46360;-86
2021/06/13 09:59:32;;;;;;;;;4.50;4.50;;;;;22.04;42.30;101901.44;4842765;29;44992;-89
2021/06/13 10:02:02;;;;;;;;;5.00;5.00;;;;;22.33;41.79;101932.41;4833306;29;45522;-88
2021/06/13 10:04:40;;;;;;;;;5.00;4.75;;;;;22.26;42.04;101926.00;4833636;29;45731;-87
2021/06/13 10:07:17;;;;;;;;;4.00;3.50;;;;;22.38;41.97;101938.13;4825762;29;46163;-88
2021/06/13 10:09:47;;;;;;;;;6.00;5.00;;;;;22.14;42.25;101896.00;4835335;29;45736;-87
2021/06/13 10:12:16;;;;;;;;;6.25;6.25;;;;;22.03;41.90;101873.06;4867161;23;45697;-86
2021/06/13 10:15:50;;;;;;;;;5.00;4.00;;;;;22.47;42.21;101926.53;4928407;23;48517;-91
2021/06/13 10:18:30;;;;;;;;;4.50;4.25;;;;;22.41;42.14;101914.63;4876809;29;47845;-89
2021/06/13 10:21:14;;;;;;;;;4.00;4.00;;;;;22.61;41.90;101926.00;4891356;29;45673;-91
2021/06/13 10:26:10;;;;;;;;;5.00;5.00;;;;;22.32;41.31;101861.31;5019625;23;71523;-79
2021/06/13 10:28:35;;;;;;;;;3.25;3.25;;;;;22.76;41.41;101923.63;4932115;28;47305;-84
2021/06/13 10:31:02;;;;;;;;;4.50;4.50;;;;;22.79;41.36;101916.13;4916876;28;45648;-86
2021/06/13 10:33:28;;;;;;;;;4.00;4.00;;;;;22.69;41.54;101899.31;4918438;28;46149;-86
2021/06/13 10:36:01;;;;;;;;;6.25;5.00;;;;;22.69;41.05;101891.31;4929581;28;46020;-83
2021/06/13 10:38:29;;;;;;;;;5.00;5.00;;;;;22.85;41.10;101911.97;4935653;28;45617;-81
2021/06/13 10:40:59;;;;;;;;;5.25;5.25;;;;;22.95;41.39;101908.22;4949037;28;45611;-82
2021/06/13 10:43:29;;;;;;;;;3.50;3.50;;;;;22.95;41.00;101908.22;4943370;28;45997;-79
2021/06/13 10:46:10;;;;;;;;;5.25;5.25;;;;;22.95;41.51;101891.34;4937710;28;47233;-79
2021/06/13 10:48:42;;;;;;;;;3.75;3.75;;;;;23.05;40.83;101907.28;4938951;28;47181;-84
2021/06/13 10:51:39;;;;;;;;;5.25;5.00;;;;;23.10;41.10;101900.47;4934453;28;45875;-81
2021/06/13 10:54:24;;;;;;;;;4.50;4.00;;;;;23.11;40.59;101898.59;4923727;28;45584;-84
2021/06/13 10:56:52;;;;;;;;;5.00;4.00;;;;;23.10;40.58;101903.13;4934733;28;45666;-82
2021/06/13 10:59:20;;;;;;;;;5.00;5.00;;;;;23.12;40.94;101886.91;4929697;28;46442;-86
2021/06/13 11:02:08;;;;;;;;;5.00;5.00;;;;;23.12;40.66;101886.91;4922617;28;45717;-83
2021/06/13 11:04:45;;;;;;;;;4.75;4.00;;;;;23.16;39.96;101886.44;4932637;28;46804;-86
2021/06/13 11:07:34;;;;;;;;;4.00;4.00;;;;;23.20;40.02;101889.66;4940448;28;46442;-86
2021/06/13 11:10:04;;;;;;;;;4.00;4.00;;;;;23.24;40.59;101885.66;4923128;28;47321;-89
2021/06/13 11:12:58;;;;;;;;;4.00;4.00;;;;;23.29;39.84;101883.31;4928807;28;45713;-85
2021/06/13 11:15:49;;;;;;;;;4.00;4.00;;;;;23.13;40.32;101846.66;4923098;28;46125;-87
2021/06/13 11:18:16;;;;;;;;;4.00;4.00;;;;;23.39;39.63;101881.34;4903556;29;45761;-88
2021/06/13 11:21:09;;;;;;;;;5.00;5.00;;;;;23.19;40.25;101848.69;4905548;29;46766;-87
2021/06/13 11:23:43;;;;;;;;;3.00;3.00;;;;;23.32;39.95;101856.28;4893756;29;45787;-88
2021/06/13 11:26:27;;;;;;;;;4.00;4.00;;;;;23.44;39.29;101871.00;4897210;29;46196;-86
2021/06/13 11:28:53;;;;;;;;;3.00;3.00;;;;;23.44;39.54;101855.78;4891515;29;47116;-88
2021/06/13 11:31:21;;;;;;;;;5.00;4.00;;;;;23.59;39.69;101874.75;4912642;29;46295;-88
2021/06/13 11:34:13;;;;;;;;;5.00;4.00;;;;;23.65;39.27;101871.44;4894661;29;45818;-86
2021/06/13 11:36:41;;;;;;;;;4.75;4.25;;;;;23.41;39.05;101820.53;4839508;29;45742;-87
2021/06/13 11:39:07;;;;;;;;;4.50;4.00;;;;;23.70;38.54;101866.44;4836657;29;47286;-85
2021/06/13 11:41:48;;;;;;;;;3.75;3.75;;;;;23.72;38.79;101875.16;4838473;29;47656;-83
2021/06/13 11:44:19;;;;;;;;;4.00;4.00;;;;;23.75;38.66;101853.41;4818920;29;45989;-84
2021/06/13 11:46:47;;;;;;;;;3.75;3.00;;;;;23.68;39.28;101835.50;4798137;29;45602;-89
2021/06/13 11:49:14;;;;;;;;;3.00;3.00;;;;;23.81;38.27;101863.44;4831961;29;45791;-85
2021/06/13 11:52:02;;;;;;;;;8.25;5.00;;;;;23.81;38.44;101842.03;4815653;29;48173;-89
2021/06/13 11:54:33;;;;;;;;;2.50;2.50;;;;;23.85;38.44;101855.94;4833487;29;45909;-84
2021/06/13 11:57:00;;;;;;;;;4.00;4.00;;;;;23.88;38.20;101836.88;4817332;29;46205;-89
2021/06/13 11:59:27;;;;;;;;;4.50;4.00;;;;;23.91;37.02;101855.28;4846659;29;46834;-85
2021/06/13 12:01:59;;;;;;;;;3.75;3.75;;;;;23.92;37.26;101859.63;4844132;29;46093;-87
2021/06/13 12:04:29;;;;;;;;;5.50;4.00;;;;;23.91;37.55;101839.22;4838302;29;45860;-81
2021/06/13 12:06:57;;;;;;;;;4.00;4.00;;;;;23.91;37.25;101835.72;4837862;29;45981;-82
2021/06/13 12:09:24;;;;;;;;;3.00;3.00;;;;;23.96;36.98;101828.84;4840867;29;47156;-81
2021/06/13 12:11:52;;;;;;;;;4.25;3.50;;;;;24.02;36.89;101828.16;4840812;29;46157;-82
2021/06/13 12:14:25;;;;;;;;;3.00;3.00;;;;;24.03;37.34;101829.84;4913919;28;45862;-86
2021/06/13 12:16:53;;;;;;;;;4.00;4.00;;;;;24.10;37.02;101830.84;4935324;28;46014;-86
2021/06/13 12:19:32;;;;;;;;;3.00;3.00;;;;;24.05;36.78;101814.47;4937231;28;45718;-86
2021/06/13 12:22:32;;;;;;;;;3.75;3.25;;;;;24.18;36.32;101828.19;4923505;28;46233;-86
2021/06/13 12:27:26;;;;;;;;;2.75;2.75;;;;;24.23;35.99;101812.47;4940788;28;45864;-89
2021/06/13 12:29:55;;;;;;;;;3.00;3.00;;;;;24.29;35.99;101813.66;4924631;28;45785;-88
2021/06/13 12:32:22;;;;;;;;;2.50;2.50;;;;;24.29;36.04;101797.56;4929767;28;45804;-91
2021/06/13 12:35:08;;;;;;;;;4.00;4.00;;;;;24.38;35.96;101801.06;4930127;28;45563;-90
2021/06/13 12:37:34;;;;;;;;;3.50;3.50;;;;;24.42;35.22;101807.75;4922624;28;45475;-83
2021/06/13 12:40:04;;;;;;;;;3.00;3.00;;;;;24.41;35.29;101800.72;4921878;28;45487;-86
2021/06/13 12:42:30;;;;;;;;;5.00;3.00;;;;;24.34;35.89;101776.47;4919606;28;46527;-88
2021/06/13 12:45:11;;;;;;;;;3.00;3.00;;;;;24.48;35.50;101794.53;4921767;28;45687;-88
2021/06/13 12:47:42;;;;;;;;;3.00;3.00;;;;;24.45;35.48;101777.97;4923947;28;45766;-85
2021/06/13 12:50:10;;;;;;;;;3.25;2.75;;;;;24.43;35.28;101764.72;4921994;28;45608;-87